createdAt,value
2019-02-27T00:00:17.351Z,1025.96
2019-02-27T00:01:17.611Z,1026.05
2019-02-27T00:02:17.315Z,1025.98
2019-02-27T00:03:17.333Z,1026.17
2019-02-27T00:04:17.291Z,1026.13
2019-02-27T00:05:17.292Z,1026.12
2019-02-27T00:06:17.273Z,1026.06
2019-02-27T00:07:20.804Z,1026.23
2019-02-27T00:08:17.350Z,1026.26
2019-02-27T00:09:17.241Z,1026.02
2019-02-27T00:10:17.237Z,1026.13
2019-02-27T00:11:17.260Z,1026.06
2019-02-27T00:12:19.366Z,1026.15
2019-02-27T00:13:17.223Z,1026.26
2019-02-27T00:14:17.187Z,1026.15
2019-02-27T00:15:17.175Z,1026.09
2019-02-27T00:16:17.169Z,1026.12
2019-02-27T00:17:18.215Z,1026.14
2019-02-27T00:18:17.160Z,1026.07
2019-02-27T00:19:17.125Z,1026.17
2019-02-27T00:20:17.112Z,1026.16
2019-02-27T00:21:17.107Z,1025.99
2019-02-27T00:22:17.639Z,1026.04
2019-02-27T00:23:17.099Z,1026.13
2019-02-27T00:24:17.091Z,1026.10
2019-02-27T00:25:17.061Z,1026.03
2019-02-27T00:26:17.047Z,1026.05
2019-02-27T00:27:17.050Z,1025.97
2019-02-27T00:28:17.043Z,1025.99
2019-02-27T00:29:17.030Z,1026.03
2019-02-27T00:30:16.998Z,1026.07
2019-02-27T00:31:16.989Z,1026.06
2019-02-27T00:32:18.659Z,1025.99
2019-02-27T00:33:16.985Z,1025.88
2019-02-27T00:34:16.971Z,1025.89
2019-02-27T00:35:16.954Z,1025.76
2019-02-27T00:36:16.935Z,1025.80
2019-02-27T00:37:19.037Z,1025.78
2019-02-27T00:38:16.926Z,1025.92
2019-02-27T00:39:16.921Z,1025.95
2019-02-27T00:40:16.900Z,1025.97
2019-02-27T00:41:16.887Z,1025.96
2019-02-27T00:42:19.509Z,1026.03
2019-02-27T00:43:16.879Z,1025.93
2019-02-27T00:44:16.848Z,1025.89
2019-02-27T00:45:16.847Z,1025.90
2019-02-27T00:46:16.830Z,1025.90
2019-02-27T00:47:17.054Z,1026.07
2019-02-27T00:48:16.804Z,1025.92
2019-02-27T00:49:16.802Z,1025.90
2019-02-27T00:50:16.778Z,1025.84
2019-02-27T00:51:16.766Z,1025.90
2019-02-27T00:52:18.389Z,1025.83
2019-02-27T00:53:16.742Z,1025.81
2019-02-27T00:54:16.748Z,1025.94
2019-02-27T00:55:16.732Z,1025.86
2019-02-27T00:56:16.718Z,1025.90
2019-02-27T00:57:20.589Z,1025.92
2019-02-27T00:58:16.704Z,1025.90
2019-02-27T00:59:16.688Z,1025.82
2019-02-27T01:00:16.659Z,1025.79
2019-02-27T01:01:16.654Z,1025.74
2019-02-27T01:02:19.973Z,1025.72
2019-02-27T01:03:16.641Z,1025.67
2019-02-27T01:04:16.643Z,1025.72
2019-02-27T01:05:16.625Z,1025.67
2019-02-27T01:06:16.650Z,1025.71
2019-02-27T01:07:20.234Z,1025.74
2019-02-27T01:08:16.594Z,1025.90
2019-02-27T01:09:16.597Z,1025.80
2019-02-27T01:10:16.557Z,1025.80
2019-02-27T01:11:18.397Z,1025.65
2019-02-27T01:12:16.536Z,1025.63
2019-02-27T01:13:16.516Z,1025.61
2019-02-27T01:14:16.530Z,1025.58
2019-02-27T01:15:16.501Z,1025.64
2019-02-27T01:16:17.260Z,1025.62
2019-02-27T01:17:16.481Z,1025.56
2019-02-27T01:18:16.478Z,1025.63
2019-02-27T01:19:16.500Z,1025.59
2019-02-27T01:20:16.475Z,1025.58
2019-02-27T01:21:19.187Z,1025.57
2019-02-27T01:22:16.423Z,1025.61
2019-02-27T01:23:16.410Z,1025.61
2019-02-27T01:24:17.416Z,1025.73
2019-02-27T01:25:16.408Z,1025.64
2019-02-27T01:26:16.380Z,1025.68
2019-02-27T01:27:16.378Z,1025.66
2019-02-27T01:28:16.373Z,1025.59
2019-02-27T01:29:18.105Z,1025.57
2019-02-27T01:30:16.331Z,1025.64
2019-02-27T01:31:16.335Z,1025.60
2019-02-27T01:32:16.311Z,1025.70
2019-02-27T01:33:16.306Z,1025.72
2019-02-27T01:34:16.297Z,1025.62
2019-02-27T01:35:18.781Z,1025.70
2019-02-27T01:36:16.282Z,1025.71
2019-02-27T01:37:16.262Z,1025.67
2019-02-27T01:38:16.250Z,1025.67
2019-02-27T01:39:16.243Z,1025.70
2019-02-27T01:40:17.940Z,1025.73
2019-02-27T01:41:16.208Z,1025.66
2019-02-27T01:42:16.212Z,1025.72
2019-02-27T01:43:16.193Z,1025.59
2019-02-27T01:44:16.181Z,1025.55
2019-02-27T01:45:20.596Z,1025.49
2019-02-27T01:46:16.154Z,1025.54
2019-02-27T01:47:16.150Z,1025.50
2019-02-27T01:48:16.128Z,1025.47
2019-02-27T01:49:16.792Z,1025.39
2019-02-27T01:50:16.142Z,1025.48
2019-02-27T01:51:16.121Z,1025.47
2019-02-27T01:52:16.082Z,1025.42
2019-02-27T01:53:16.080Z,1025.44
2019-02-27T01:54:16.063Z,1025.38
2019-02-27T01:55:16.071Z,1025.43
2019-02-27T01:56:16.040Z,1025.31
2019-02-27T01:57:16.020Z,1025.43
2019-02-27T01:58:16.020Z,1025.25
2019-02-27T01:59:16.980Z,1025.24
2019-02-27T02:00:16.009Z,1025.32
2019-02-27T02:01:15.982Z,1025.35
2019-02-27T02:02:15.982Z,1025.32
2019-02-27T02:03:15.961Z,1025.29
2019-02-27T02:04:20.034Z,1025.21
2019-02-27T02:05:15.949Z,1025.19
2019-02-27T02:06:15.945Z,1025.15
2019-02-27T02:07:15.915Z,1025.09
2019-02-27T02:08:15.910Z,1025.08
2019-02-27T02:09:15.920Z,1025.08
2019-02-27T02:10:15.892Z,1025.00
2019-02-27T02:11:15.870Z,1024.99
2019-02-27T02:12:15.867Z,1025.00
2019-02-27T02:13:15.897Z,1024.97
2019-02-27T02:14:15.838Z,1025.00
2019-02-27T02:15:15.848Z,1024.97
2019-02-27T02:16:15.838Z,1024.98
2019-02-27T02:17:15.818Z,1024.93
2019-02-27T02:18:15.790Z,1024.89
2019-02-27T02:19:15.780Z,1024.90
2019-02-27T02:20:15.784Z,1024.90
2019-02-27T02:21:15.785Z,1025.02
2019-02-27T02:22:15.748Z,1024.88
2019-02-27T02:23:15.760Z,1024.88
2019-02-27T02:24:15.731Z,1025.01
2019-02-27T02:25:15.728Z,1025.07
2019-02-27T02:26:15.729Z,1024.96
2019-02-27T02:27:15.698Z,1024.90
2019-02-27T02:28:15.694Z,1024.87
2019-02-27T02:29:17.869Z,1024.86
2019-02-27T02:30:15.665Z,1024.84
2019-02-27T02:31:15.671Z,1024.90
2019-02-27T02:32:17.503Z,1024.97
2019-02-27T02:33:15.630Z,1024.95
2019-02-27T02:34:15.621Z,1024.92
2019-02-27T02:35:16.026Z,1024.87
2019-02-27T02:36:15.619Z,1024.92
2019-02-27T02:37:15.592Z,1024.70
2019-02-27T02:38:15.563Z,1024.64
2019-02-27T02:39:19.085Z,1024.77
2019-02-27T02:40:15.549Z,1024.71
2019-02-27T02:41:15.552Z,1024.83
2019-02-27T02:42:15.533Z,1024.83
2019-02-27T02:43:15.512Z,1024.87
2019-02-27T02:44:20.697Z,1024.88
2019-02-27T02:45:16.493Z,1024.66
2019-02-27T02:46:15.501Z,1024.67
2019-02-27T02:47:19.743Z,1024.66
2019-02-27T02:48:16.482Z,1024.64
2019-02-27T02:49:15.471Z,1024.72
2019-02-27T02:50:17.852Z,1024.78
2019-02-27T02:51:15.456Z,1024.75
2019-02-27T02:52:15.415Z,1024.66
2019-02-27T02:53:15.403Z,1024.71
2019-02-27T02:54:15.388Z,1024.66
2019-02-27T02:55:15.381Z,1024.67
2019-02-27T02:56:15.378Z,1024.66
2019-02-27T02:57:15.389Z,1024.74
2019-02-27T02:58:15.365Z,1024.79
2019-02-27T02:59:15.334Z,1024.75
2019-02-27T03:00:15.343Z,1024.73
2019-02-27T03:01:15.472Z,1024.89
2019-02-27T03:02:15.309Z,1024.80
2019-02-27T03:03:15.290Z,1024.84
2019-02-27T03:04:15.279Z,1024.79
2019-02-27T03:05:15.266Z,1024.84
2019-02-27T03:06:15.302Z,1024.72
2019-02-27T03:07:15.254Z,1024.72
2019-02-27T03:08:19.953Z,1024.67
2019-02-27T03:09:16.218Z,1024.70
2019-02-27T03:10:15.236Z,1024.72
2019-02-27T03:11:19.131Z,1024.64
2019-02-27T03:12:15.215Z,1024.66
2019-02-27T03:13:15.179Z,1024.70
2019-02-27T03:14:17.639Z,1024.73
2019-02-27T03:15:15.166Z,1024.65
2019-02-27T03:16:15.153Z,1024.66
2019-02-27T03:17:18.248Z,1024.67
2019-02-27T03:18:15.127Z,1024.69
2019-02-27T03:19:15.119Z,1024.69
2019-02-27T03:20:17.709Z,1024.70
2019-02-27T03:21:15.099Z,1024.69
2019-02-27T03:22:15.094Z,1024.63
2019-02-27T03:23:15.737Z,1024.60
2019-02-27T03:24:15.056Z,1024.64
2019-02-27T03:25:15.046Z,1024.55
2019-02-27T03:26:16.957Z,1024.62
2019-02-27T03:27:15.036Z,1024.61
2019-02-27T03:28:15.024Z,1024.61
2019-02-27T03:29:16.802Z,1024.60
2019-02-27T03:30:14.988Z,1024.62
2019-02-27T03:31:18.323Z,1024.57
2019-02-27T03:32:14.998Z,1024.57
2019-02-27T03:33:23.339Z,1024.55
2019-02-27T03:34:15.956Z,1024.68
2019-02-27T03:35:14.936Z,1024.65
2019-02-27T03:36:14.936Z,1024.63
2019-02-27T03:37:14.934Z,1024.58
2019-02-27T03:38:14.903Z,1024.67
2019-02-27T03:39:14.903Z,1024.62
2019-02-27T03:40:14.878Z,1024.62
2019-02-27T03:41:14.882Z,1024.64
2019-02-27T03:42:14.874Z,1024.47
2019-02-27T03:43:14.862Z,1024.43
2019-02-27T03:44:20.247Z,1024.48
2019-02-27T03:45:15.837Z,1024.52
2019-02-27T03:46:14.820Z,1024.49
2019-02-27T03:47:16.645Z,1024.47
2019-02-27T03:48:14.801Z,1024.56
2019-02-27T03:49:14.794Z,1024.54
2019-02-27T03:50:15.654Z,1024.45
2019-02-27T03:51:14.755Z,1024.39
2019-02-27T03:52:14.782Z,1024.54
2019-02-27T03:53:14.757Z,1024.45
2019-02-27T03:54:20.869Z,1024.51
2019-02-27T03:55:15.709Z,1024.45
2019-02-27T03:56:14.706Z,1024.43
2019-02-27T03:57:18.970Z,1024.43
2019-02-27T03:58:15.741Z,1024.43
2019-02-27T03:59:14.667Z,1024.40
2019-02-27T04:00:17.991Z,1024.54
2019-02-27T04:01:14.699Z,1024.50
2019-02-27T04:02:14.672Z,1024.39
2019-02-27T04:03:18.189Z,1024.39
2019-02-27T04:04:14.618Z,1024.42
2019-02-27T04:05:14.613Z,1024.39
2019-02-27T04:06:20.169Z,1024.38
2019-02-27T04:07:15.620Z,1024.33
2019-02-27T04:08:14.576Z,1024.35
2019-02-27T04:09:18.557Z,1024.34
2019-02-27T04:10:15.549Z,1024.32
2019-02-27T04:11:14.539Z,1024.48
2019-02-27T04:12:16.627Z,1024.45
2019-02-27T04:13:14.515Z,1024.36
2019-02-27T04:14:14.511Z,1024.32
2019-02-27T04:15:17.770Z,1024.38
2019-02-27T04:16:14.524Z,1024.37
2019-02-27T04:17:14.542Z,1024.39
2019-02-27T04:18:14.472Z,1024.44
2019-02-27T04:19:14.446Z,1024.31
2019-02-27T04:20:15.573Z,1024.33
2019-02-27T04:21:14.429Z,1024.31
2019-02-27T04:22:14.431Z,1024.32
2019-02-27T04:23:14.414Z,1024.27
2019-02-27T04:24:14.389Z,1024.20
2019-02-27T04:25:14.394Z,1024.28
2019-02-27T04:26:14.374Z,1024.25
2019-02-27T04:27:20.026Z,1024.26
2019-02-27T04:28:15.339Z,1024.23
2019-02-27T04:29:14.334Z,1024.22
2019-02-27T04:30:15.007Z,1024.22
2019-02-27T04:31:14.313Z,1024.23
2019-02-27T04:32:14.335Z,1024.21
2019-02-27T04:33:14.306Z,1024.31
2019-02-27T04:34:14.299Z,1024.26
2019-02-27T04:35:14.269Z,1024.16
2019-02-27T04:36:14.267Z,1024.20
2019-02-27T04:37:14.259Z,1024.24
2019-02-27T04:38:14.251Z,1024.26
2019-02-27T04:39:14.221Z,1024.21
2019-02-27T04:40:14.220Z,1024.19
2019-02-27T04:41:17.826Z,1024.16
2019-02-27T04:42:14.200Z,1024.23
2019-02-27T04:43:14.198Z,1024.20
2019-02-27T04:44:14.193Z,1024.25
2019-02-27T04:45:14.163Z,1024.22
2019-02-27T04:46:14.152Z,1024.21
2019-02-27T04:47:14.139Z,1024.25
2019-02-27T04:48:14.145Z,1024.16
2019-02-27T04:49:14.130Z,1024.17
2019-02-27T04:50:14.109Z,1024.17
2019-02-27T04:51:16.905Z,1024.28
2019-02-27T04:52:14.083Z,1024.24
2019-02-27T04:53:14.125Z,1024.29
2019-02-27T04:54:14.063Z,1024.15
2019-02-27T04:55:15.616Z,1024.20
2019-02-27T04:56:14.054Z,1024.23
2019-02-27T04:57:14.050Z,1024.11
2019-02-27T04:58:14.049Z,1024.04
2019-02-27T04:59:18.282Z,1024.08
2019-02-27T05:00:14.006Z,1024.04
2019-02-27T05:01:13.995Z,1024.05
2019-02-27T05:02:14.667Z,1024.16
2019-02-27T05:03:13.983Z,1024.03
2019-02-27T05:04:13.952Z,1024.04
2019-02-27T05:05:13.952Z,1024.04
2019-02-27T05:06:14.524Z,1024.10
2019-02-27T05:07:13.936Z,1024.09
2019-02-27T05:08:13.937Z,1023.98
2019-02-27T05:09:13.903Z,1023.97
2019-02-27T05:10:13.892Z,1024.10
2019-02-27T05:11:14.781Z,1024.09
2019-02-27T05:12:13.866Z,1024.10
2019-02-27T05:13:13.874Z,1024.01
2019-02-27T05:14:13.853Z,1024.00
2019-02-27T05:15:13.834Z,1023.98
2019-02-27T05:16:14.730Z,1023.87
2019-02-27T05:17:13.824Z,1023.87
2019-02-27T05:18:13.841Z,1023.99
2019-02-27T05:19:15.277Z,1023.94
2019-02-27T05:20:13.788Z,1023.94
2019-02-27T05:21:13.767Z,1023.90
2019-02-27T05:22:13.760Z,1023.79
2019-02-27T05:23:13.773Z,1023.82
2019-02-27T05:24:13.752Z,1023.76
2019-02-27T05:25:14.472Z,1023.81
2019-02-27T05:26:13.724Z,1023.78
2019-02-27T05:27:13.707Z,1023.79
2019-02-27T05:28:13.687Z,1023.79
2019-02-27T05:29:15.751Z,1023.92
2019-02-27T05:30:13.883Z,1023.90
2019-02-27T05:31:17.971Z,1023.77
2019-02-27T05:32:13.663Z,1023.86
2019-02-27T05:33:13.652Z,1023.79
2019-02-27T05:34:13.717Z,1023.79
2019-02-27T05:35:13.630Z,1023.83
2019-02-27T05:36:13.621Z,1023.89
2019-02-27T05:37:13.593Z,1023.96
2019-02-27T05:38:13.594Z,1023.96
2019-02-27T05:39:17.000Z,1023.81
2019-02-27T05:40:13.580Z,1023.78
2019-02-27T05:41:13.609Z,1023.79
2019-02-27T05:42:13.554Z,1023.82
2019-02-27T05:43:14.065Z,1023.82
2019-02-27T05:44:13.544Z,1023.81
2019-02-27T05:45:13.506Z,1023.72
2019-02-27T05:46:15.079Z,1023.68
2019-02-27T05:47:13.484Z,1023.74
2019-02-27T05:48:13.486Z,1023.73
2019-02-27T05:49:13.490Z,1023.70
2019-02-27T05:50:13.472Z,1023.71
2019-02-27T05:51:13.481Z,1023.89
2019-02-27T05:52:14.367Z,1023.78
2019-02-27T05:53:13.430Z,1023.79
2019-02-27T05:54:13.439Z,1023.74
2019-02-27T05:55:13.408Z,1023.76
2019-02-27T05:56:15.827Z,1023.71
2019-02-27T05:57:13.381Z,1023.83
2019-02-27T05:58:13.367Z,1023.71
2019-02-27T05:59:13.356Z,1023.77
2019-02-27T06:00:13.373Z,1023.75
2019-02-27T06:01:13.346Z,1023.73
2019-02-27T06:02:13.332Z,1023.71
2019-02-27T06:03:13.336Z,1023.70
2019-02-27T06:04:13.327Z,1023.66
2019-02-27T06:05:13.314Z,1023.66
2019-02-27T06:06:13.282Z,1023.62
2019-02-27T06:07:13.270Z,1023.62
2019-02-27T06:08:13.277Z,1023.70
2019-02-27T06:09:13.264Z,1023.69
2019-02-27T06:10:13.393Z,1023.82
2019-02-27T06:11:13.246Z,1023.81
2019-02-27T06:12:13.221Z,1023.79
2019-02-27T06:13:14.198Z,1023.84
2019-02-27T06:14:13.227Z,1023.81
2019-02-27T06:15:13.206Z,1023.82
2019-02-27T06:16:13.186Z,1023.83
2019-02-27T06:17:13.568Z,1023.76
2019-02-27T06:18:13.158Z,1023.86
2019-02-27T06:19:13.140Z,1023.80
2019-02-27T06:20:13.161Z,1023.78
2019-02-27T06:21:13.378Z,1023.77
2019-02-27T06:22:13.124Z,1023.77
2019-02-27T06:23:13.105Z,1023.74
2019-02-27T06:24:13.095Z,1023.78
2019-02-27T06:25:13.106Z,1023.74
2019-02-27T06:26:13.083Z,1023.61
2019-02-27T06:27:13.052Z,1023.69
2019-02-27T06:28:13.097Z,1023.78
2019-02-27T06:29:13.039Z,1023.69
2019-02-27T06:30:13.085Z,1023.62
2019-02-27T06:31:13.021Z,1023.59
2019-02-27T06:32:13.001Z,1023.56
2019-02-27T06:33:12.990Z,1023.57
2019-02-27T06:34:13.045Z,1023.68
2019-02-27T06:35:12.977Z,1023.60
2019-02-27T06:36:12.961Z,1023.52
2019-02-27T06:37:15.362Z,1023.50
2019-02-27T06:38:12.938Z,1023.50
2019-02-27T06:39:12.925Z,1023.45
2019-02-27T06:40:12.935Z,1023.50
2019-02-27T06:41:15.436Z,1023.50
2019-02-27T06:42:12.977Z,1023.57
2019-02-27T06:43:12.892Z,1023.42
2019-02-27T06:44:12.874Z,1023.56
2019-02-27T06:45:13.307Z,1023.48
2019-02-27T06:46:12.872Z,1023.38
2019-02-27T06:47:12.848Z,1023.45
2019-02-27T06:48:12.840Z,1023.43
2019-02-27T06:49:17.277Z,1023.39
2019-02-27T06:50:13.827Z,1023.37
2019-02-27T06:51:12.838Z,1023.33
2019-02-27T06:52:12.822Z,1023.55
2019-02-27T06:53:15.601Z,1023.52
2019-02-27T06:54:12.763Z,1023.49
2019-02-27T06:55:13.328Z,1023.48
2019-02-27T06:56:12.998Z,1023.48
2019-02-27T06:57:12.733Z,1023.56
2019-02-27T06:58:14.805Z,1023.54
2019-02-27T06:59:12.719Z,1023.53
2019-02-27T07:00:12.706Z,1023.50
2019-02-27T07:01:13.224Z,1023.51
2019-02-27T07:02:12.695Z,1023.52
2019-02-27T07:03:12.679Z,1023.44
2019-02-27T07:04:12.650Z,1023.40
2019-02-27T07:05:13.577Z,1023.39
2019-02-27T07:06:12.656Z,1023.38
2019-02-27T07:07:12.624Z,1023.36
2019-02-27T07:08:12.623Z,1023.41
2019-02-27T07:09:12.595Z,1023.47
2019-02-27T07:10:12.588Z,1023.47
2019-02-27T07:11:12.608Z,1023.47
2019-02-27T07:12:12.586Z,1023.45
2019-02-27T07:13:12.575Z,1023.38
2019-02-27T07:14:12.544Z,1023.32
2019-02-27T07:15:12.902Z,1023.42
2019-02-27T07:16:12.546Z,1023.36
2019-02-27T07:17:12.511Z,1023.42
2019-02-27T07:18:12.533Z,1023.39
2019-02-27T07:19:13.144Z,1023.42
2019-02-27T07:20:12.498Z,1023.44
2019-02-27T07:21:12.514Z,1023.43
2019-02-27T07:22:12.718Z,1023.46
2019-02-27T07:23:12.444Z,1023.39
2019-02-27T07:24:12.434Z,1023.37
2019-02-27T07:25:12.424Z,1023.38
2019-02-27T07:26:13.251Z,1023.34
2019-02-27T07:27:12.417Z,1023.34
2019-02-27T07:28:12.390Z,1023.32
2019-02-27T07:29:21.140Z,1023.36
2019-02-27T07:30:13.366Z,1023.45
2019-02-27T07:31:12.563Z,1023.30
2019-02-27T07:32:12.368Z,1023.26
2019-02-27T07:33:12.350Z,1023.29
2019-02-27T07:34:14.371Z,1023.23
2019-02-27T07:35:12.317Z,1023.23
2019-02-27T07:36:12.311Z,1023.17
2019-02-27T07:37:12.916Z,1023.35
2019-02-27T07:38:12.292Z,1023.25
2019-02-27T07:39:12.267Z,1023.25
2019-02-27T07:40:12.422Z,1023.21
2019-02-27T07:41:12.250Z,1023.17
2019-02-27T07:42:12.251Z,1023.18
2019-02-27T07:43:12.238Z,1023.18
2019-02-27T07:44:12.218Z,1023.19
2019-02-27T07:45:12.242Z,1023.25
2019-02-27T07:46:12.185Z,1023.35
2019-02-27T07:47:12.205Z,1023.30
2019-02-27T07:48:12.183Z,1023.32
2019-02-27T07:49:12.152Z,1023.30
2019-02-27T07:50:12.145Z,1023.23
2019-02-27T07:51:12.132Z,1023.11
2019-02-27T07:52:12.133Z,1023.09
2019-02-27T07:53:12.107Z,1023.10
2019-02-27T07:54:12.091Z,1023.08
2019-02-27T07:55:19.965Z,1023.12
2019-02-27T07:56:13.089Z,1023.12
2019-02-27T07:57:12.099Z,1023.13
2019-02-27T07:58:12.054Z,1023.13
2019-02-27T07:59:12.057Z,1023.22
2019-02-27T08:00:14.993Z,1023.14
2019-02-27T08:01:12.025Z,1023.04
2019-02-27T08:02:12.005Z,1023.01
2019-02-27T08:03:13.086Z,1023.01
2019-02-27T08:04:12.001Z,1023.04
2019-02-27T08:05:11.985Z,1023.19
2019-02-27T08:06:11.978Z,1023.01
2019-02-27T08:07:12.377Z,1023.00
2019-02-27T08:08:11.967Z,1023.04
2019-02-27T08:09:11.951Z,1023.04
2019-02-27T08:10:11.929Z,1023.14
2019-02-27T08:11:13.591Z,1023.19
2019-02-27T08:12:11.910Z,1022.98
2019-02-27T08:13:11.912Z,1022.95
2019-02-27T08:14:12.979Z,1022.99
2019-02-27T08:15:13.562Z,1022.93
2019-02-27T08:16:11.871Z,1022.99
2019-02-27T08:17:17.606Z,1022.96
2019-02-27T08:18:12.909Z,1022.88
2019-02-27T08:19:12.288Z,1022.90
2019-02-27T08:20:11.812Z,1022.91
2019-02-27T08:21:11.796Z,1022.90
2019-02-27T08:22:11.793Z,1022.95
2019-02-27T08:23:11.789Z,1022.84
2019-02-27T08:24:11.759Z,1023.01
2019-02-27T08:25:11.753Z,1022.98
2019-02-27T08:26:11.769Z,1022.97
2019-02-27T08:27:11.743Z,1022.88
2019-02-27T08:28:11.747Z,1022.85
2019-02-27T08:29:11.723Z,1022.79
2019-02-27T08:30:11.696Z,1022.88
2019-02-27T08:31:11.694Z,1022.88
2019-02-27T08:32:11.679Z,1022.87
2019-02-27T08:33:11.662Z,1022.74
2019-02-27T08:34:11.683Z,1022.78
2019-02-27T08:35:11.647Z,1022.81
2019-02-27T08:36:11.646Z,1022.85
2019-02-27T08:37:11.625Z,1022.80
2019-02-27T08:38:11.610Z,1022.84
2019-02-27T08:39:11.635Z,1022.89
2019-02-27T08:40:11.627Z,1022.86
2019-02-27T08:41:11.581Z,1022.80
2019-02-27T08:42:11.575Z,1022.79
2019-02-27T08:43:11.569Z,1022.95
2019-02-27T08:44:12.293Z,1022.83
2019-02-27T08:45:19.268Z,1022.84
2019-02-27T08:46:12.520Z,1022.86
2019-02-27T08:47:11.510Z,1022.80
2019-02-27T08:48:11.529Z,1022.80
2019-02-27T08:49:11.508Z,1022.88
2019-02-27T08:50:11.482Z,1022.73
2019-02-27T08:51:11.485Z,1022.80
2019-02-27T08:52:15.257Z,1022.79
2019-02-27T08:53:11.439Z,1022.65
2019-02-27T08:54:11.462Z,1022.66
2019-02-27T08:55:18.582Z,1022.61
2019-02-27T08:56:12.964Z,1022.65
2019-02-27T08:57:11.408Z,1022.57
2019-02-27T08:58:11.396Z,1022.55
2019-02-27T08:59:11.388Z,1022.58
2019-02-27T09:00:14.172Z,1022.61
2019-02-27T09:01:11.356Z,1022.55
2019-02-27T09:02:11.355Z,1022.55
2019-02-27T09:03:19.964Z,1022.58
2019-02-27T09:04:12.432Z,1022.46
2019-02-27T09:05:11.320Z,1022.46
2019-02-27T09:06:11.302Z,1022.38
2019-02-27T09:07:11.286Z,1022.41
2019-02-27T09:08:11.291Z,1022.43
2019-02-27T09:09:11.288Z,1022.37
2019-02-27T09:10:11.265Z,1022.43
2019-02-27T09:11:11.254Z,1022.39
2019-02-27T09:12:13.388Z,1022.36
2019-02-27T09:13:11.227Z,1022.32
2019-02-27T09:14:12.049Z,1022.33
2019-02-27T09:15:11.209Z,1022.25
2019-02-27T09:16:11.190Z,1022.32
2019-02-27T09:17:11.188Z,1022.31
2019-02-27T09:18:11.179Z,1022.32
2019-02-27T09:20:12.148Z,1022.22
2019-02-27T09:21:11.146Z,1022.25
2019-02-27T09:22:11.130Z,1022.25
2019-02-27T09:23:11.103Z,1022.24
2019-02-27T09:24:11.120Z,1022.38
2019-02-27T09:25:11.089Z,1022.28
2019-02-27T09:26:11.077Z,1022.31
2019-02-27T09:27:11.078Z,1022.21
2019-02-27T09:28:11.066Z,1022.22
2019-02-27T09:29:11.045Z,1022.17
2019-02-27T09:30:11.056Z,1022.24
2019-02-27T09:31:12.175Z,1022.20
2019-02-27T09:32:11.665Z,1022.12
2019-02-27T09:33:11.011Z,1022.15
2019-02-27T09:34:11.024Z,1022.11
2019-02-27T09:35:11.031Z,1022.08
2019-02-27T09:36:11.051Z,1022.05
2019-02-27T09:37:10.976Z,1022.10
2019-02-27T09:38:10.954Z,1022.04
2019-02-27T09:39:10.947Z,1022.10
2019-02-27T09:40:10.943Z,1022.06
2019-02-27T09:41:12.409Z,1022.09
2019-02-27T09:42:10.908Z,1021.99
2019-02-27T09:43:11.746Z,1022.03
2019-02-27T09:44:10.887Z,1021.99
2019-02-27T09:45:11.131Z,1022.02
2019-02-27T09:46:10.861Z,1021.97
2019-02-27T09:47:10.871Z,1021.99
2019-02-27T09:48:10.835Z,1021.95
2019-02-27T09:49:10.835Z,1022.06
2019-02-27T09:50:11.887Z,1021.86
2019-02-27T09:51:10.800Z,1022.07
2019-02-27T09:52:10.789Z,1021.98
2019-02-27T09:53:10.804Z,1021.93
2019-02-27T09:54:10.969Z,1021.92
2019-02-27T09:55:10.764Z,1022.05
2019-02-27T09:56:11.626Z,1021.85
2019-02-27T09:57:10.751Z,1021.93
2019-02-27T09:58:11.475Z,1021.87
2019-02-27T09:59:10.715Z,1021.83
2019-02-27T10:00:10.732Z,1021.83
2019-02-27T10:01:10.697Z,1021.83
2019-02-27T10:02:12.518Z,1021.85
2019-02-27T10:03:10.668Z,1021.82
2019-02-27T10:04:10.660Z,1021.83
2019-02-27T10:05:12.431Z,1021.78
2019-02-27T10:06:10.639Z,1021.79
2019-02-27T10:07:10.644Z,1021.87
2019-02-27T10:08:10.614Z,1021.84
2019-02-27T10:09:10.602Z,1021.96
2019-02-27T10:10:11.008Z,1021.87
2019-02-27T10:11:10.586Z,1021.79
2019-02-27T10:12:10.576Z,1021.88
2019-02-27T10:13:10.563Z,1021.92
2019-02-27T10:14:10.548Z,1021.76
2019-02-27T10:15:10.613Z,1021.87
2019-02-27T10:16:10.528Z,1021.72
2019-02-27T10:17:10.537Z,1021.79
2019-02-27T10:18:10.499Z,1021.79
2019-02-27T10:19:10.494Z,1021.77
2019-02-27T10:20:10.516Z,1021.82
2019-02-27T10:21:12.042Z,1021.91
2019-02-27T10:22:10.492Z,1021.88
2019-02-27T10:23:10.462Z,1021.75
2019-02-27T10:24:10.436Z,1021.73
2019-02-27T10:25:10.448Z,1021.77
2019-02-27T10:26:10.418Z,1021.70
2019-02-27T10:27:10.412Z,1021.78
2019-02-27T10:28:10.758Z,1021.68
2019-02-27T10:29:10.955Z,1021.65
2019-02-27T10:30:11.740Z,1021.63
2019-02-27T10:31:10.367Z,1021.76
2019-02-27T10:32:10.350Z,1021.78
2019-02-27T10:33:11.150Z,1021.60
2019-02-27T10:34:10.330Z,1021.71
2019-02-27T10:35:10.333Z,1021.66
2019-02-27T10:36:10.768Z,1021.58
2019-02-27T10:37:12.899Z,1021.57
2019-02-27T10:38:10.294Z,1021.56
2019-02-27T10:39:10.307Z,1021.52
2019-02-27T10:40:11.461Z,1021.47
2019-02-27T10:41:10.250Z,1021.58
2019-02-27T10:42:10.257Z,1021.45
2019-02-27T10:43:10.247Z,1021.59
2019-02-27T10:44:10.230Z,1021.39
2019-02-27T10:45:10.711Z,1021.38
2019-02-27T10:46:10.204Z,1021.33
2019-02-27T10:47:10.181Z,1021.35
2019-02-27T10:48:12.570Z,1021.43
2019-02-27T10:49:10.154Z,1021.33
2019-02-27T10:50:10.143Z,1021.34
2019-02-27T10:51:10.226Z,1021.35
2019-02-27T10:52:10.141Z,1021.25
2019-02-27T10:53:10.112Z,1021.27
2019-02-27T10:54:10.100Z,1021.20
2019-02-27T10:55:11.368Z,1021.26
2019-02-27T10:56:10.092Z,1021.23
2019-02-27T10:57:10.069Z,1021.30
2019-02-27T10:58:13.011Z,1021.17
2019-02-27T10:59:10.060Z,1021.15
2019-02-27T11:00:10.044Z,1021.16
2019-02-27T11:01:10.051Z,1021.20
2019-02-27T11:02:12.503Z,1021.11
2019-02-27T11:03:10.004Z,1021.08
2019-02-27T11:04:09.989Z,1021.22
2019-02-27T11:05:10.004Z,1020.99
2019-02-27T11:06:09.980Z,1021.13
2019-02-27T11:07:10.019Z,1021.14
2019-02-27T11:08:09.960Z,1021.19
2019-02-27T11:09:09.932Z,1020.95
2019-02-27T11:10:09.927Z,1020.97
2019-02-27T11:11:09.918Z,1021.09
2019-02-27T11:12:09.922Z,1020.99
2019-02-27T11:13:09.887Z,1020.96
2019-02-27T11:14:09.876Z,1020.96
2019-02-27T11:15:09.870Z,1021.08
2019-02-27T11:16:09.862Z,1020.89
2019-02-27T11:17:09.890Z,1020.88
2019-02-27T11:18:09.848Z,1020.89
2019-02-27T11:19:09.830Z,1020.82
2019-02-27T11:20:09.815Z,1020.97
2019-02-27T11:21:09.805Z,1020.91
2019-02-27T11:22:09.807Z,1020.80
2019-02-27T11:23:09.787Z,1020.89
2019-02-27T11:24:09.776Z,1020.92
2019-02-27T11:25:09.764Z,1020.93
2019-02-27T11:26:09.814Z,1020.93
2019-02-27T11:27:09.762Z,1020.78
2019-02-27T11:28:09.727Z,1020.84
2019-02-27T11:29:09.727Z,1020.80
2019-02-27T11:30:09.699Z,1020.71
2019-02-27T11:31:10.962Z,1020.68
2019-02-27T11:32:09.703Z,1020.65
2019-02-27T11:33:09.662Z,1020.69
2019-02-27T11:34:09.665Z,1020.69
2019-02-27T11:35:09.644Z,1020.66
2019-02-27T11:36:09.630Z,1020.67
2019-02-27T11:37:12.875Z,1020.61
2019-02-27T11:38:09.653Z,1020.78
2019-02-27T11:39:09.600Z,1020.69
2019-02-27T11:40:09.596Z,1020.86
2019-02-27T11:41:09.590Z,1020.64
2019-02-27T11:42:09.569Z,1020.53
2019-02-27T11:43:09.582Z,1020.54
2019-02-27T11:44:14.152Z,1020.47
2019-02-27T11:45:09.541Z,1020.52
2019-02-27T11:46:09.533Z,1020.49
2019-02-27T11:47:11.370Z,1020.61
2019-02-27T11:48:09.525Z,1020.36
2019-02-27T11:49:09.503Z,1020.30
2019-02-27T11:50:09.486Z,1020.28
2019-02-27T11:51:09.470Z,1020.29
2019-02-27T11:52:09.453Z,1020.28
2019-02-27T11:53:09.475Z,1020.29
2019-02-27T11:54:09.439Z,1020.32
2019-02-27T11:55:09.417Z,1020.19
2019-02-27T11:56:09.426Z,1020.20
2019-02-27T11:57:09.403Z,1020.26
2019-02-27T11:58:09.411Z,1020.29
2019-02-27T11:59:12.552Z,1020.25
2019-02-27T12:00:09.374Z,1020.06
2019-02-27T12:01:09.352Z,1020.05
2019-02-27T12:02:09.359Z,1019.99
2019-02-27T12:03:11.063Z,1020.08
2019-02-27T12:04:09.333Z,1020.05
2019-02-27T12:05:09.323Z,1019.94
2019-02-27T12:06:09.293Z,1019.94